Terminal Aerodrome Forecast
Issued by NWS Jackson, MS

Home | Current Version | Previous Version | Text Only | Print | Product List | Glossary On
Versions: 1 2 3 4 5 6 7 8 9 10 11 12
000
FTUS44 KJAN 272300
TAFGLH
TAF
KGLH 272320Z 2800/2824 03007KT 4SM RA BR VCTS SCT006 OVC015CB
     FM280200 01010KT 4SM -RA BR VCTS OVC006CB
     FM280500 35014G20KT 4SM -RA BR OVC005
     FM281400 36011KT 3SM -RA BR OVC015=

USA.gov is the U.S. government's official web portal to all federal, state and local government web resources and services.